createdAt,value
2019-02-26T00:01:57.953Z,93.60
2019-02-26T00:04:29.822Z,93.60
2019-02-26T00:07:00.371Z,93.70
2019-02-26T00:09:30.616Z,93.60
2019-02-26T00:12:00.865Z,93.90
2019-02-26T00:14:30.474Z,94.10
2019-02-26T00:16:59.899Z,94.10
2019-02-26T00:19:29.244Z,94.00
2019-02-26T00:21:58.593Z,94.30
2019-02-26T00:24:30.556Z,94.50
2019-02-26T00:27:00.960Z,94.50
2019-02-26T00:29:32.047Z,94.60
2019-02-26T00:32:01.130Z,94.70
2019-02-26T00:34:32.247Z,94.50
2019-02-26T00:37:03.944Z,94.50
2019-02-26T00:39:32.925Z,94.30
2019-02-26T00:42:02.723Z,94.40
2019-02-26T00:44:35.415Z,94.70
2019-02-26T00:47:06.564Z,94.70
2019-02-26T00:49:35.602Z,94.70
2019-02-26T00:52:06.396Z,94.90
2019-02-26T00:54:36.593Z,94.40
2019-02-26T00:57:08.717Z,94.70
2019-02-26T00:59:38.908Z,94.70
2019-02-26T01:02:08.233Z,94.60
2019-02-26T01:04:39.057Z,94.70
2019-02-26T01:07:08.698Z,94.90
2019-02-26T01:09:38.040Z,94.80
2019-02-26T01:12:09.137Z,94.70
2019-02-26T01:14:39.235Z,94.80
2019-02-26T01:17:10.441Z,94.60
2019-02-26T01:19:42.981Z,94.60
2019-02-26T01:22:11.945Z,94.50
2019-02-26T01:24:41.284Z,94.60
2019-02-26T01:27:10.623Z,94.60
2019-02-26T01:29:39.959Z,94.80
2019-02-26T01:32:13.154Z,94.90
2019-02-26T01:34:42.566Z,95.30
2019-02-26T01:37:12.046Z,95.30
2019-02-26T01:39:42.969Z,95.60
2019-02-26T01:42:13.419Z,95.50
2019-02-26T01:44:44.493Z,95.80
2019-02-26T01:47:13.948Z,95.80
2019-02-26T01:49:44.191Z,96.10
2019-02-26T01:52:17.316Z,96.10
2019-02-26T01:54:46.402Z,96.20
2019-02-26T01:57:17.361Z,96.10
2019-02-26T01:59:49.903Z,96.10
2019-02-26T02:02:20.359Z,96.10
2019-02-26T02:04:48.984Z,96.00
2019-02-26T02:07:18.936Z,95.90
2019-02-26T02:09:51.309Z,95.80
2019-02-26T02:12:20.445Z,95.80
2019-02-26T02:14:49.792Z,95.80
2019-02-26T02:17:19.127Z,96.00
2019-02-26T02:19:48.466Z,95.90
2019-02-26T02:22:19.077Z,95.80
2019-02-26T02:24:51.052Z,96.10
2019-02-26T02:27:22.222Z,96.10
2019-02-26T02:29:53.086Z,95.80
2019-02-26T02:32:26.098Z,96.20
2019-02-26T02:34:58.312Z,96.10
2019-02-26T02:37:26.951Z,96.10
2019-02-26T02:39:56.687Z,95.90
2019-02-26T02:42:26.029Z,95.90
2019-02-26T02:44:57.562Z,95.90
2019-02-26T02:47:29.918Z,95.80
2019-02-26T02:49:57.500Z,95.80
2019-02-26T02:52:30.434Z,95.80
2019-02-26T02:55:00.640Z,95.80
2019-02-26T02:57:32.004Z,96.30
2019-02-26T03:00:02.956Z,96.10
2019-02-26T03:02:32.100Z,96.10
2019-02-26T03:05:01.448Z,96.10
2019-02-26T03:07:30.789Z,96.50
2019-02-26T03:10:04.543Z,96.60
2019-02-26T03:12:33.307Z,96.60
2019-02-26T03:15:04.944Z,96.80
2019-02-26T03:17:33.723Z,96.70
2019-02-26T03:20:04.916Z,96.60
2019-02-26T03:22:36.313Z,96.60
2019-02-26T03:25:08.623Z,96.90
2019-02-26T03:27:40.623Z,96.90
2019-02-26T03:30:26.618Z,96.90
2019-02-26T03:32:52.153Z,96.90
2019-02-26T03:35:19.604Z,96.80
2019-02-26T03:37:51.615Z,97.00
2019-02-26T03:40:23.022Z,97.00
2019-02-26T03:42:51.597Z,97.00
2019-02-26T03:45:24.848Z,97.00
2019-02-26T03:47:52.020Z,97.30
2019-02-26T03:50:21.340Z,97.30
2019-02-26T03:52:50.668Z,97.10
2019-02-26T03:55:20.013Z,97.10
2019-02-26T03:57:52.836Z,97.20
2019-02-26T04:00:20.813Z,97.20
2019-02-26T04:02:51.548Z,97.30
2019-02-26T04:05:21.212Z,97.40
2019-02-26T04:07:53.257Z,97.30
2019-02-26T04:10:21.991Z,97.20
2019-02-26T04:12:54.643Z,97.20
2019-02-26T04:15:24.478Z,97.40
2019-02-26T04:17:53.468Z,97.40
2019-02-26T04:20:26.918Z,97.40
2019-02-26T04:22:56.828Z,97.30
2019-02-26T04:25:57.691Z,97.50
2019-02-26T04:28:40.364Z,97.40
2019-02-26T04:31:44.570Z,97.60
2019-02-26T04:34:29.628Z,97.60
2019-02-26T04:37:15.301Z,97.40
2019-02-26T04:40:16.572Z,97.70
2019-02-26T04:43:07.334Z,97.50
2019-02-26T04:45:49.971Z,97.40
2019-02-26T04:48:31.718Z,97.90
2019-02-26T04:51:00.569Z,97.80
2019-02-26T04:53:31.280Z,97.90
2019-02-26T04:56:02.972Z,97.80
2019-02-26T04:58:34.202Z,97.90
2019-02-26T05:01:04.781Z,97.80
2019-02-26T05:03:34.317Z,98.10
2019-02-26T05:06:07.371Z,97.90
2019-02-26T05:08:37.134Z,98.10
2019-02-26T05:11:05.850Z,98.00
2019-02-26T05:13:35.182Z,98.10
2019-02-26T05:16:04.518Z,98.20
2019-02-26T05:18:34.604Z,98.20
2019-02-26T05:21:06.914Z,98.20
2019-02-26T05:23:35.021Z,98.10
2019-02-26T05:26:05.657Z,98.00
2019-02-26T05:28:37.680Z,98.00
2019-02-26T05:31:09.079Z,97.90
2019-02-26T05:33:38.680Z,98.00
2019-02-26T05:36:09.440Z,98.00
2019-02-26T05:38:39.400Z,98.20
2019-02-26T05:41:08.742Z,98.20
2019-02-26T05:43:38.083Z,98.20
2019-02-26T05:46:07.420Z,98.20
2019-02-26T05:48:37.160Z,98.10
2019-02-26T05:51:09.322Z,98.00
2019-02-26T05:53:38.870Z,98.10
2019-02-26T05:56:08.845Z,98.00
2019-02-26T05:58:41.420Z,98.00
2019-02-26T06:01:10.494Z,98.10
2019-02-26T06:03:41.046Z,98.20
2019-02-26T06:06:10.890Z,98.20
2019-02-26T06:08:41.254Z,98.30
2019-02-26T06:11:10.696Z,98.10
2019-02-26T06:13:41.177Z,98.00
2019-02-26T06:16:11.095Z,98.10
2019-02-26T06:18:41.949Z,98.20
2019-02-26T06:21:13.808Z,98.10
2019-02-26T06:23:43.429Z,98.10
2019-02-26T06:26:14.918Z,98.10
2019-02-26T06:28:46.180Z,98.10
2019-02-26T06:31:17.410Z,98.30
2019-02-26T06:33:47.778Z,98.40
2019-02-26T06:36:18.558Z,98.50
2019-02-26T06:38:49.619Z,98.30
2019-02-26T06:41:19.718Z,98.20
2019-02-26T06:43:50.360Z,98.30
2019-02-26T06:46:20.165Z,98.20
2019-02-26T06:48:49.494Z,98.20
2019-02-26T06:51:19.524Z,98.30
2019-02-26T06:53:52.215Z,98.20
2019-02-26T06:56:20.949Z,98.40
2019-02-26T06:58:50.294Z,98.60
2019-02-26T07:01:19.626Z,98.20
2019-02-26T07:03:48.970Z,98.20
2019-02-26T07:06:20.855Z,98.20
2019-02-26T07:08:51.013Z,98.10
2019-02-26T07:11:20.429Z,98.10
2019-02-26T07:13:49.764Z,98.00
2019-02-26T07:16:20.712Z,98.20
2019-02-26T07:18:50.157Z,98.30
2019-02-26T07:21:19.490Z,98.30
2019-02-26T07:23:48.830Z,98.40
2019-02-26T07:26:18.900Z,98.20
2019-02-26T07:28:51.013Z,98.20
2019-02-26T07:31:20.457Z,98.10
2019-02-26T07:33:51.526Z,98.30
2019-02-26T07:36:21.831Z,98.20
2019-02-26T07:38:53.911Z,98.30
2019-02-26T07:41:23.636Z,98.20
2019-02-26T07:43:54.719Z,98.10
2019-02-26T07:46:24.246Z,98.10
2019-02-26T07:48:56.238Z,98.00
2019-02-26T07:51:24.642Z,98.10
2019-02-26T07:53:55.954Z,98.10
2019-02-26T07:56:25.974Z,98.00
2019-02-26T07:58:59.063Z,97.90
2019-02-26T08:01:27.172Z,97.90
2019-02-26T08:03:56.514Z,97.90
2019-02-26T08:06:26.715Z,97.90
2019-02-26T08:08:56.950Z,97.90
2019-02-26T08:11:26.290Z,97.80
2019-02-26T08:13:56.749Z,97.80
2019-02-26T08:16:27.730Z,97.70
2019-02-26T08:18:58.915Z,97.70
2019-02-26T08:21:29.717Z,97.60
2019-02-26T08:23:59.090Z,97.40
2019-02-26T08:26:29.166Z,97.40
2019-02-26T08:29:00.143Z,97.40
2019-02-26T08:31:30.540Z,97.00
2019-02-26T08:33:59.883Z,96.80
2019-02-26T08:36:29.398Z,96.60
2019-02-26T08:38:58.737Z,96.40
2019-02-26T08:41:28.084Z,96.00
2019-02-26T08:43:58.833Z,95.60
2019-02-26T08:46:28.348Z,95.00
2019-02-26T08:48:57.692Z,94.10
2019-02-26T08:51:27.032Z,93.40
2019-02-26T08:53:57.238Z,92.80
2019-02-26T08:56:28.299Z,92.30
2019-02-26T08:58:58.477Z,91.70
2019-02-26T09:01:28.843Z,91.40
2019-02-26T09:03:58.989Z,90.90
2019-02-26T09:06:29.262Z,90.50
2019-02-26T09:09:00.189Z,90.10
2019-02-26T09:11:31.847Z,89.50
2019-02-26T09:14:02.193Z,88.50
2019-02-26T09:16:32.788Z,87.70
2019-02-26T09:19:02.226Z,87.60
2019-02-26T09:21:31.566Z,88.00
2019-02-26T09:24:02.613Z,86.60
2019-02-26T09:26:31.992Z,86.20
2019-02-26T09:29:01.329Z,85.40
2019-02-26T09:31:30.674Z,84.70
2019-02-26T09:34:00.025Z,83.70
2019-02-26T09:36:29.570Z,83.70
2019-02-26T09:38:58.906Z,82.60
2019-02-26T09:41:28.251Z,82.40
2019-02-26T09:43:59.471Z,81.50
2019-02-26T09:46:28.670Z,81.20
2019-02-26T09:49:00.334Z,81.30
2019-02-26T09:51:30.614Z,81.40
2019-02-26T09:54:00.161Z,80.80
2019-02-26T09:56:29.506Z,80.50
2019-02-26T09:58:58.870Z,79.60
2019-02-26T10:01:30.161Z,79.60
2019-02-26T10:04:01.312Z,78.70
2019-02-26T10:06:30.393Z,78.50
2019-02-26T10:08:59.735Z,77.80
2019-02-26T10:11:29.087Z,77.40
2019-02-26T10:13:58.433Z,76.70
2019-02-26T10:16:28.662Z,76.10
2019-02-26T10:18:58.851Z,75.50
2019-02-26T10:21:28.201Z,74.60
2019-02-26T10:23:59.309Z,73.70
2019-02-26T10:26:30.787Z,72.30
2019-02-26T10:29:04.394Z,72.80
2019-02-26T10:31:30.771Z,71.30
2019-02-26T10:34:00.117Z,69.50
2019-02-26T10:36:32.517Z,69.00
2019-02-26T10:39:02.797Z,68.30
2019-02-26T10:41:31.693Z,67.70
2019-02-26T10:44:01.040Z,67.40
2019-02-26T10:46:32.182Z,66.30
2019-02-26T10:49:01.769Z,64.70
2019-02-26T10:51:31.113Z,64.80
2019-02-26T10:54:02.618Z,64.40
2019-02-26T10:56:36.832Z,64.60
2019-02-26T10:59:05.510Z,64.20
2019-02-26T11:01:34.105Z,61.50
2019-02-26T11:04:04.539Z,61.90
2019-02-26T11:06:36.700Z,62.70
2019-02-26T11:09:11.137Z,63.50
2019-02-26T11:11:42.344Z,61.30
2019-02-26T11:14:14.250Z,60.80
2019-02-26T11:16:42.951Z,60.40
2019-02-26T11:19:12.476Z,59.60
2019-02-26T11:21:41.924Z,58.80
2019-02-26T11:24:11.412Z,58.60
2019-02-26T11:26:41.426Z,58.10
2019-02-26T11:29:11.859Z,58.30
2019-02-26T11:31:42.503Z,58.00
2019-02-26T11:34:13.330Z,56.80
2019-02-26T11:36:42.894Z,55.80
2019-02-26T11:39:12.313Z,56.90
2019-02-26T11:41:41.655Z,55.70
2019-02-26T11:44:12.725Z,55.80
2019-02-26T11:46:43.793Z,56.20
2019-02-26T11:49:16.323Z,55.20
2019-02-26T11:51:44.241Z,55.00
2019-02-26T11:54:15.101Z,54.90
2019-02-26T11:56:46.750Z,55.30
2019-02-26T11:59:16.830Z,53.80
2019-02-26T12:01:46.777Z,53.70
2019-02-26T12:04:17.016Z,54.10
2019-02-26T12:06:46.546Z,54.00
2019-02-26T12:09:16.184Z,54.30
2019-02-26T12:11:45.710Z,52.40
2019-02-26T12:14:18.401Z,51.80
2019-02-26T12:16:46.125Z,52.90
2019-02-26T12:19:15.462Z,53.20
2019-02-26T12:21:44.806Z,51.20
2019-02-26T12:24:14.143Z,52.20
2019-02-26T12:26:45.307Z,51.20
2019-02-26T12:29:16.192Z,50.80
2019-02-26T12:31:46.009Z,48.60
2019-02-26T12:34:20.761Z,49.10
2019-02-26T12:36:51.228Z,48.50
2019-02-26T12:39:22.142Z,47.60
2019-02-26T12:41:51.796Z,47.50
2019-02-26T12:44:21.088Z,47.50
2019-02-26T12:46:51.155Z,46.20
2019-02-26T12:49:22.551Z,45.20
2019-02-26T12:51:54.009Z,45.20
2019-02-26T12:54:23.080Z,45.00
2019-02-26T12:56:55.011Z,44.60
2019-02-26T12:59:23.485Z,43.40
2019-02-26T13:01:52.825Z,43.10
2019-02-26T13:04:24.936Z,43.70
2019-02-26T13:06:53.235Z,43.10
2019-02-26T13:09:26.667Z,42.40
2019-02-26T13:12:01.279Z,42.40
2019-02-26T13:14:24.701Z,42.20
2019-02-26T13:16:57.151Z,42.10
2019-02-26T13:19:29.924Z,42.30
2019-02-26T13:22:04.895Z,42.60
2019-02-26T13:24:27.579Z,42.30
2019-02-26T13:26:59.688Z,41.30
2019-02-26T13:29:27.982Z,41.90
2019-02-26T13:31:59.961Z,41.20
2019-02-26T13:34:28.731Z,42.10
2019-02-26T13:36:58.069Z,40.70
2019-02-26T13:39:36.809Z,41.50
2019-02-26T13:42:03.972Z,41.80
2019-02-26T13:44:29.684Z,41.60
2019-02-26T13:46:59.092Z,41.20
2019-02-26T13:49:28.435Z,40.90
2019-02-26T13:51:57.769Z,41.80
2019-02-26T13:54:27.117Z,42.10
2019-02-26T13:56:56.453Z,40.70
2019-02-26T13:59:25.793Z,40.80
2019-02-26T14:01:55.130Z,41.90
2019-02-26T14:04:24.747Z,41.40
2019-02-26T14:06:54.087Z,41.10
2019-02-26T14:09:23.428Z,40.60
2019-02-26T14:11:52.765Z,40.10
2019-02-26T14:14:22.121Z,40.00
2019-02-26T14:16:51.458Z,39.80
2019-02-26T14:19:20.802Z,39.60
2019-02-26T14:21:50.149Z,40.30
2019-02-26T14:24:19.486Z,39.60
2019-02-26T14:26:48.821Z,40.40
2019-02-26T14:29:18.161Z,41.40
2019-02-26T14:31:47.497Z,41.20
2019-02-26T14:34:16.837Z,40.00
2019-02-26T14:36:46.177Z,40.00
2019-02-26T14:39:15.661Z,41.00
2019-02-26T14:41:45.000Z,40.50
2019-02-26T14:44:14.342Z,41.20
2019-02-26T14:46:43.685Z,41.00
2019-02-26T14:49:13.030Z,40.70
2019-02-26T14:51:42.370Z,41.20
2019-02-26T14:54:12.854Z,40.80
2019-02-26T14:56:42.197Z,41.40
2019-02-26T14:59:11.544Z,41.60
2019-02-26T15:01:41.258Z,41.70
2019-02-26T15:04:10.606Z,41.60
2019-02-26T15:06:39.951Z,41.50
2019-02-26T15:09:09.562Z,40.70
2019-02-26T15:11:38.916Z,41.00
2019-02-26T15:14:08.294Z,40.80
2019-02-26T15:16:37.643Z,41.40
2019-02-26T15:19:06.985Z,40.90
2019-02-26T15:21:36.327Z,41.00
2019-02-26T15:24:05.672Z,40.80
2019-02-26T15:26:35.010Z,41.30
2019-02-26T15:29:04.359Z,41.10
2019-02-26T15:31:33.699Z,41.70
2019-02-26T15:34:03.042Z,41.70
2019-02-26T15:36:32.765Z,42.00
2019-02-26T15:39:02.105Z,42.30
2019-02-26T15:41:31.454Z,43.50
2019-02-26T15:44:00.804Z,43.30
2019-02-26T15:46:30.901Z,43.30
2019-02-26T15:49:00.670Z,43.30
2019-02-26T15:51:30.011Z,43.40
2019-02-26T15:53:59.564Z,43.30
2019-02-26T15:56:29.789Z,43.10
2019-02-26T15:58:59.612Z,43.90
2019-02-26T16:01:28.958Z,43.60
2019-02-26T16:03:58.307Z,44.20
2019-02-26T16:06:27.646Z,44.90
2019-02-26T16:08:57.001Z,44.80
2019-02-26T16:11:26.331Z,44.90
2019-02-26T16:13:55.674Z,44.90
2019-02-26T16:16:25.019Z,45.20
2019-02-26T16:18:54.368Z,45.60
2019-02-26T16:21:25.575Z,45.80
2019-02-26T16:23:54.779Z,47.00
2019-02-26T16:26:24.117Z,46.20
2019-02-26T16:28:53.463Z,47.10
2019-02-26T16:31:22.801Z,47.50
2019-02-26T16:33:52.142Z,47.90
2019-02-26T16:36:21.496Z,47.20
2019-02-26T16:38:51.610Z,49.10
2019-02-26T16:41:21.055Z,49.50
2019-02-26T16:43:51.927Z,51.20
2019-02-26T16:46:21.463Z,52.40
2019-02-26T16:48:53.185Z,52.60
2019-02-26T16:51:21.907Z,54.10
2019-02-26T16:53:51.227Z,54.70
2019-02-26T16:56:21.975Z,55.80
2019-02-26T16:58:51.798Z,57.00
2019-02-26T17:01:21.834Z,58.50
2019-02-26T17:03:51.859Z,58.80
2019-02-26T17:06:21.282Z,59.90
2019-02-26T17:08:50.622Z,60.20
2019-02-26T17:11:20.247Z,61.20
2019-02-26T17:13:49.581Z,62.30
2019-02-26T17:16:19.564Z,62.10
2019-02-26T17:18:48.906Z,64.00
2019-02-26T17:21:18.247Z,65.50
2019-02-26T17:23:47.798Z,65.40
2019-02-26T17:26:17.107Z,67.10
2019-02-26T17:28:46.508Z,68.30
2019-02-26T17:31:15.855Z,67.90
2019-02-26T17:33:46.735Z,68.50
2019-02-26T17:36:16.274Z,68.90
2019-02-26T17:38:45.613Z,70.00
2019-02-26T17:41:14.976Z,69.60
2019-02-26T17:43:44.315Z,71.20
2019-02-26T17:46:13.668Z,70.80
2019-02-26T17:48:43.706Z,72.00
2019-02-26T17:51:13.222Z,72.40
2019-02-26T17:53:42.564Z,73.10
2019-02-26T17:56:11.902Z,73.50
2019-02-26T17:58:41.746Z,74.50
2019-02-26T18:01:12.392Z,74.90
2019-02-26T18:03:44.735Z,75.30
2019-02-26T18:06:13.168Z,76.70
2019-02-26T18:08:42.599Z,76.10
2019-02-26T18:11:11.944Z,76.30
2019-02-26T18:13:41.283Z,77.00
2019-02-26T18:16:10.631Z,78.60
2019-02-26T18:18:39.971Z,79.40
2019-02-26T18:21:09.312Z,79.70
2019-02-26T18:23:38.655Z,80.60
2019-02-26T18:26:08.001Z,81.00
2019-02-26T18:28:37.336Z,80.10
2019-02-26T18:31:06.698Z,80.50
2019-02-26T18:33:36.335Z,81.00
2019-02-26T18:36:05.761Z,81.00
2019-02-26T18:38:35.177Z,81.40
2019-02-26T18:41:04.522Z,81.00
2019-02-26T18:43:33.864Z,82.60
2019-02-26T18:46:03.206Z,83.20
2019-02-26T18:48:32.627Z,82.60
2019-02-26T18:51:02.414Z,83.00
2019-02-26T18:53:32.399Z,83.60
2019-02-26T18:56:04.132Z,83.60
2019-02-26T18:58:32.822Z,83.60
2019-02-26T19:01:02.172Z,83.60
2019-02-26T19:03:31.513Z,83.40
2019-02-26T19:06:00.859Z,84.00
2019-02-26T19:08:30.212Z,85.20
2019-02-26T19:10:59.564Z,85.70
2019-02-26T19:13:28.939Z,85.20
2019-02-26T19:15:58.287Z,85.40
2019-02-26T19:18:27.632Z,85.50
2019-02-26T19:20:56.977Z,85.90
2019-02-26T19:23:26.395Z,87.40
2019-02-26T19:25:55.742Z,87.90
2019-02-26T19:28:26.446Z,87.40
2019-02-26T19:30:55.803Z,87.70
2019-02-26T19:33:25.143Z,88.10
2019-02-26T19:35:54.485Z,88.20
2019-02-26T19:38:27.238Z,89.20
2019-02-26T19:41:02.176Z,89.40
2019-02-26T19:43:31.514Z,88.80
2019-02-26T19:46:02.265Z,88.80
2019-02-26T19:48:33.858Z,89.10
2019-02-26T19:51:02.975Z,89.70
2019-02-26T19:53:34.494Z,90.00
2019-02-26T19:56:03.732Z,90.00
2019-02-26T19:58:33.070Z,90.00
2019-02-26T20:01:02.410Z,89.90
2019-02-26T20:03:39.610Z,90.50
2019-02-26T20:06:02.823Z,90.60
2019-02-26T20:08:32.165Z,90.60
2019-02-26T20:11:01.507Z,90.50
2019-02-26T20:13:31.711Z,90.70
2019-02-26T20:16:01.926Z,90.70
2019-02-26T20:18:31.268Z,90.70
2019-02-26T20:21:00.596Z,90.60
2019-02-26T20:23:29.959Z,90.50
2019-02-26T20:25:59.277Z,90.60
2019-02-26T20:28:28.782Z,91.30
2019-02-26T20:30:58.132Z,91.40
2019-02-26T20:33:27.474Z,91.40
2019-02-26T20:35:56.955Z,91.30
2019-02-26T20:38:26.299Z,91.40
2019-02-26T20:40:55.633Z,91.30
2019-02-26T20:43:24.973Z,91.20
2019-02-26T20:45:54.307Z,91.60
2019-02-26T20:48:23.645Z,91.70
2019-02-26T20:50:53.735Z,91.80
2019-02-26T20:53:23.905Z,91.70
2019-02-26T20:55:57.471Z,91.70
2019-02-26T20:58:24.311Z,91.60
2019-02-26T21:00:53.649Z,92.00
2019-02-26T21:03:22.992Z,92.00
2019-02-26T21:05:52.393Z,91.70
2019-02-26T21:08:21.725Z,92.10
2019-02-26T21:10:51.132Z,92.30
2019-02-26T21:13:20.465Z,92.60
2019-02-26T21:15:49.804Z,92.40
2019-02-26T21:18:19.143Z,92.70
2019-02-26T21:20:49.263Z,92.50
2019-02-26T21:23:18.696Z,92.50
2019-02-26T21:25:48.029Z,92.70
2019-02-26T21:28:17.380Z,92.80
2019-02-26T21:30:46.718Z,92.70
2019-02-26T21:33:16.058Z,92.70
2019-02-26T21:35:45.397Z,92.80
2019-02-26T21:38:14.782Z,93.00
2019-02-26T21:40:44.127Z,92.80
2019-02-26T21:43:13.467Z,93.00
2019-02-26T21:45:44.506Z,93.10
2019-02-26T21:48:13.927Z,93.30
2019-02-26T21:50:43.265Z,93.30
2019-02-26T21:53:15.713Z,93.50
2019-02-26T21:55:44.379Z,93.60
2019-02-26T21:58:14.992Z,93.60
2019-02-26T22:00:44.427Z,93.50
2019-02-26T22:03:13.762Z,93.60
2019-02-26T22:05:43.102Z,93.70
2019-02-26T22:08:12.442Z,93.70
2019-02-26T22:10:42.789Z,94.00
2019-02-26T22:13:12.710Z,94.00
2019-02-26T22:15:44.528Z,94.00
2019-02-26T22:18:13.116Z,94.10
2019-02-26T22:20:42.454Z,94.00
2019-02-26T22:23:11.794Z,94.10
2019-02-26T22:25:41.130Z,94.20
2019-02-26T22:28:10.468Z,94.20
2019-02-26T22:30:39.811Z,94.30
2019-02-26T22:33:09.149Z,94.00
2019-02-26T22:35:38.490Z,94.30
2019-02-26T22:38:07.830Z,94.50
2019-02-26T22:40:37.181Z,94.60
2019-02-26T22:43:06.517Z,94.90
2019-02-26T22:45:35.859Z,94.60
2019-02-26T22:48:05.210Z,94.60
2019-02-26T22:50:34.552Z,94.70
2019-02-26T22:53:04.557Z,94.90
2019-02-26T22:55:33.906Z,95.00
2019-02-26T22:58:03.412Z,95.00
2019-02-26T23:01:00.451Z,95.10
2019-02-26T23:03:29.794Z,95.20
2019-02-26T23:05:59.632Z,95.10
2019-02-26T23:08:29.053Z,95.10
2019-02-26T23:10:58.653Z,95.20
2019-02-26T23:13:31.513Z,95.30
2019-02-26T23:15:59.397Z,95.20
2019-02-26T23:18:31.047Z,95.20
2019-02-26T23:21:00.831Z,95.20
2019-02-26T23:23:30.209Z,95.20
2019-02-26T23:25:59.721Z,95.20
2019-02-26T23:28:29.330Z,95.30
2019-02-26T23:30:59.889Z,95.20
2019-02-26T23:33:29.699Z,95.20
2019-02-26T23:35:59.114Z,95.10
2019-02-26T23:38:28.461Z,95.10
2019-02-26T23:41:00.204Z,95.30
2019-02-26T23:43:29.197Z,95.30
2019-02-26T23:45:58.535Z,95.30
2019-02-26T23:48:27.876Z,95.50
2019-02-26T23:50:57.217Z,95.40
2019-02-26T23:53:26.564Z,95.50
2019-02-26T23:55:55.913Z,96.00
2019-02-26T23:58:25.285Z,95.60
